Time;durP1;ratioP1;P1;durP2;ratioP2;P2;SDS_P1;SDS_P2;PMS_P1;PMS_P2;Temp;Humidity;BMP_temperature;BMP_pressure;BME280_temperature;BME280_humidity;BME280_pressure;Samples;Min_cycle;Max_cycle;Signal;HPM_P1;HPM_P2
2020/12/02 00:01:28;;;;;;;6.80;3.00;;;19.30;40.00;;;;;;5072805;28;20365;-73
2020/12/02 00:03:59;;;;;;;8.02;2.78;;;19.20;39.40;;;;;;5058362;28;20032;-72
2020/12/02 00:06:28;;;;;;;5.95;2.35;;;19.20;40.30;;;;;;5081264;28;20054;-71
2020/12/02 00:08:59;;;;;;;3.67;2.63;;;19.20;39.90;;;;;;5083228;28;20082;-71
2020/12/02 00:11:28;;;;;;;5.85;2.85;;;19.10;40.00;;;;;;5055855;28;20037;-72
2020/12/02 00:13:59;;;;;;;4.90;3.33;;;19.20;40.40;;;;;;5073447;28;20024;-72
2020/12/02 00:16:29;;;;;;;3.92;2.53;;;19.10;40.50;;;;;;5086041;28;20024;-72
2020/12/02 00:18:57;;;;;;;4.18;2.97;;;19.10;40.10;;;;;;5091456;28;20024;-72
2020/12/02 00:21:27;;;;;;;5.18;2.85;;;19.00;39.70;;;;;;5058470;28;20017;-72
2020/12/02 00:23:54;;;;;;;11.43;2.45;;;18.90;40.30;;;;;;5080024;28;20372;-72
2020/12/02 00:26:22;;;;;;;7.20;2.72;;;18.90;40.60;;;;;;5075624;28;20040;-72
2020/12/02 00:28:48;;;;;;;6.57;3.40;;;18.80;40.90;;;;;;5082727;28;20098;-72
2020/12/02 00:31:15;;;;;;;12.05;2.40;;;18.90;41.10;;;;;;5076119;28;20020;-73
2020/12/02 00:33:42;;;;;;;4.72;2.75;;;18.80;41.40;;;;;;5087686;28;20132;-72
2020/12/02 00:36:09;;;;;;;5.95;3.22;;;18.60;41.50;;;;;;5079943;28;20336;-72
2020/12/02 00:38:36;;;;;;;7.20;2.90;;;18.40;41.40;;;;;;5084823;28;20032;-73
2020/12/02 00:41:03;;;;;;;9.25;4.32;;;18.30;41.80;;;;;;5073924;28;20056;-72
2020/12/02 00:43:31;;;;;;;6.28;5.03;;;18.20;41.80;;;;;;5077793;28;20133;-72
2020/12/02 00:46:00;;;;;;;10.88;3.97;;;18.10;41.90;;;;;;5071191;28;20108;-72
2020/12/02 00:48:29;;;;;;;8.75;4.53;;;18.00;42.20;;;;;;5067637;28;20033;-72
2020/12/02 00:50:56;;;;;;;7.55;3.42;;;17.80;42.40;;;;;;5073280;28;20103;-72
2020/12/02 00:53:29;;;;;;;4.78;3.17;;;17.60;43.10;;;;;;5071049;28;20453;-72
2020/12/02 00:55:56;;;;;;;9.27;3.75;;;17.40;42.50;;;;;;5064474;28;20024;-72
2020/12/02 00:58:44;;;;;;;10.90;4.47;;;17.30;42.90;;;;;;5081181;28;20032;-72
2020/12/02 01:01:16;;;;;;;10.38;5.22;;;17.20;43.00;;;;;;5074590;28;20038;-72
2020/12/02 01:03:42;;;;;;;12.97;4.80;;;17.10;42.90;;;;;;5076250;28;20032;-72
2020/12/02 01:06:11;;;;;;;10.27;4.28;;;16.90;43.20;;;;;;5073959;28;20020;-72
2020/12/02 01:08:43;;;;;;;4.85;3.17;;;16.70;43.60;;;;;;5070638;28;20477;-71
2020/12/02 01:11:19;;;;;;;4.30;2.83;;;16.50;43.80;;;;;;5068581;28;20035;-72
2020/12/02 01:13:47;;;;;;;5.97;2.70;;;16.40;44.00;;;;;;5067406;28;20036;-73
2020/12/02 01:16:24;;;;;;;5.28;3.05;;;16.30;44.10;;;;;;5066739;28;20036;-72
2020/12/02 01:18:50;;;;;;;10.32;3.65;;;16.20;44.20;;;;;;5072009;28;20465;-73
2020/12/02 01:21:35;;;;;;;7.47;3.13;;;16.00;44.20;;;;;;5075380;28;20020;-72
2020/12/02 01:24:13;;;;;;;6.47;3.10;;;15.90;44.30;;;;;;5070027;28;20024;-74
2020/12/02 01:26:49;;;;;;;7.55;3.45;;;15.80;44.30;;;;;;5080621;28;20024;-72
2020/12/02 01:29:24;;;;;;;6.75;2.75;;;15.70;44.20;;;;;;5086207;28;20040;-72
2020/12/02 01:31:57;;;;;;;8.65;4.25;;;15.50;44.80;;;;;;5073694;28;20043;-73
2020/12/02 01:34:24;;;;;;;9.05;3.42;;;15.40;45.20;;;;;;5074662;28;20028;-72
2020/12/02 01:37:07;;;;;;;11.65;4.03;;;15.20;45.30;;;;;;5078257;28;20032;-72
2020/12/02 01:39:41;;;;;;;7.22;3.35;;;15.20;45.60;;;;;;5076777;28;20111;-72
2020/12/02 01:42:12;;;;;;;8.15;3.78;;;15.10;45.10;;;;;;5067439;28;20025;-72
2020/12/02 01:44:40;;;;;;;5.65;3.08;;;15.00;45.10;;;;;;5064639;28;20571;-72
2020/12/02 01:47:40;;;;;;;7.10;3.58;;;14.80;45.80;;;;;;5076332;28;20035;-72
2020/12/02 01:50:12;;;;;;;9.40;3.67;;;14.70;45.40;;;;;;5079910;28;20032;-73
2020/12/02 01:52:41;;;;;;;9.77;5.03;;;14.70;45.50;;;;;;5077420;28;20029;-76
2020/12/02 01:55:11;;;;;;;8.60;3.70;;;14.70;45.70;;;;;;5071719;28;20033;-73
2020/12/02 01:57:38;;;;;;;8.05;4.22;;;14.60;46.50;;;;;;5081420;28;20031;-72
2020/12/02 02:00:20;;;;;;;8.18;4.25;;;14.50;45.80;;;;;;5077947;28;20024;-72
2020/12/02 02:03:06;;;;;;;8.27;4.10;;;14.50;46.40;;;;;;5079398;28;20029;-72
2020/12/02 02:05:59;;;;;;;9.18;4.15;;;14.40;46.20;;;;;;5074623;28;20021;-72
2020/12/02 02:08:29;;;;;;;12.73;4.78;;;14.30;46.70;;;;;;5075164;28;20104;-72
2020/12/02 02:10:57;;;;;;;14.13;5.28;;;14.30;46.80;;;;;;5072999;28;20024;-73
2020/12/02 02:13:36;;;;;;;13.57;4.93;;;14.20;47.00;;;;;;5087803;28;20031;-73
2020/12/02 02:16:13;;;;;;;8.07;4.95;;;14.10;47.20;;;;;;5082838;28;20335;-73
2020/12/02 02:18:40;;;;;;;10.85;5.55;;;14.10;47.50;;;;;;5067326;28;20086;-73
2020/12/02 02:21:14;;;;;;;12.88;6.00;;;14.00;47.90;;;;;;5069886;28;20027;-74
2020/12/02 02:23:40;;;;;;;9.43;4.07;;;14.00;47.40;;;;;;5058769;28;20051;-75
2020/12/02 02:26:10;;;;;;;12.85;4.10;;;13.90;47.10;;;;;;5065893;28;20126;-74
2020/12/02 02:28:41;;;;;;;6.65;3.58;;;13.90;48.10;;;;;;5073325;28;20021;-74
2020/12/02 02:31:14;;;;;;;5.90;3.97;;;14.00;48.20;;;;;;5072855;28;20446;-73
2020/12/02 02:33:41;;;;;;;11.25;4.45;;;14.10;48.20;;;;;;5072548;28;20064;-75
2020/12/02 02:36:12;;;;;;;8.18;4.18;;;14.00;48.20;;;;;;5073408;28;20033;-74
2020/12/02 02:38:39;;;;;;;7.95;3.60;;;14.10;48.40;;;;;;5074085;28;20481;-74
2020/12/02 02:41:08;;;;;;;8.88;3.97;;;14.00;48.80;;;;;;5078762;28;20327;-74
2020/12/02 02:43:35;;;;;;;9.00;4.32;;;14.00;48.50;;;;;;5075157;28;20104;-74
2020/12/02 02:46:02;;;;;;;9.77;4.20;;;14.00;48.30;;;;;;5056571;28;20052;-73
2020/12/02 02:48:28;;;;;;;11.07;4.03;;;14.00;49.10;;;;;;5077875;28;20052;-73
2020/12/02 02:50:55;;;;;;;9.70;4.20;;;14.00;48.50;;;;;;5073321;28;20035;-74
2020/12/02 02:53:24;;;;;;;12.35;4.93;;;14.00;48.80;;;;;;5073036;28;20036;-73
2020/12/02 02:55:51;;;;;;;7.88;4.07;;;13.90;49.70;;;;;;5073647;28;20063;-74
2020/12/02 02:58:18;;;;;;;11.60;3.80;;;13.90;48.90;;;;;;5073137;28;20021;-74
2020/12/02 03:00:45;;;;;;;7.68;3.65;;;14.00;49.20;;;;;;5088504;28;20077;-73
2020/12/02 03:03:14;;;;;;;12.40;3.72;;;13.90;49.00;;;;;;5065684;28;20024;-73
2020/12/02 03:05:40;;;;;;;13.10;3.70;;;13.90;49.30;;;;;;5074926;28;20032;-72
2020/12/02 03:08:10;;;;;;;12.48;4.40;;;13.90;49.60;;;;;;5074092;28;20028;-73
2020/12/02 03:10:38;;;;;;;15.38;4.10;;;13.90;49.30;;;;;;5067267;28;20458;-74
2020/12/02 03:13:39;;;;;;;6.50;3.92;;;13.80;49.50;;;;;;5082408;28;20028;-73
2020/12/02 03:16:12;;;;;;;10.18;4.50;;;13.90;50.20;;;;;;5066691;28;20024;-72
2020/12/02 03:18:40;;;;;;;10.82;4.20;;;13.80;49.60;;;;;;5093623;28;20020;-74
2020/12/02 03:21:13;;;;;;;8.70;4.28;;;13.80;49.90;;;;;;5085278;28;20096;-73
2020/12/02 03:23:39;;;;;;;11.07;4.38;;;13.70;49.90;;;;;;5076554;28;20023;-74
2020/12/02 03:26:06;;;;;;;8.98;4.15;;;13.70;50.60;;;;;;5074919;28;20517;-73
2020/12/02 03:28:33;;;;;;;6.15;3.42;;;13.50;50.30;;;;;;5070201;28;20041;-74
2020/12/02 03:31:05;;;;;;;7.45;4.93;;;13.50;50.80;;;;;;5068549;28;20036;-75
2020/12/02 03:33:31;;;;;;;11.20;4.60;;;13.60;50.50;;;;;;5071319;28;20048;-75
2020/12/02 03:35:58;;;;;;;7.57;5.03;;;13.50;50.50;;;;;;5075210;28;20032;-75
2020/12/02 03:38:25;;;;;;;18.75;4.93;;;13.40;50.60;;;;;;5075141;28;20024;-75
2020/12/02 03:40:52;;;;;;;7.45;5.05;;;13.40;50.70;;;;;;5076423;28;20032;-75
2020/12/02 03:43:19;;;;;;;12.55;4.63;;;13.30;50.70;;;;;;5076021;28;20024;-75
2020/12/02 03:45:46;;;;;;;11.32;4.95;;;13.30;50.50;;;;;;5073767;28;20028;-75
2020/12/02 03:48:15;;;;;;;7.03;3.88;;;13.30;50.90;;;;;;5075210;28;20366;-76
2020/12/02 03:50:43;;;;;;;8.98;4.22;;;13.20;51.00;;;;;;5074012;28;20085;-75
2020/12/02 03:53:10;;;;;;;10.02;5.15;;;13.20;50.90;;;;;;5073408;28;20422;-74
2020/12/02 03:55:37;;;;;;;8.68;4.00;;;13.00;51.20;;;;;;5072219;28;20162;-74
2020/12/02 03:58:04;;;;;;;10.27;4.78;;;13.00;51.00;;;;;;5076418;28;20024;-75
2020/12/02 04:00:31;;;;;;;12.98;4.20;;;13.00;51.60;;;;;;5073884;28;20033;-75
2020/12/02 04:02:58;;;;;;;7.20;4.13;;;12.90;51.30;;;;;;5074976;28;20020;-75
2020/12/02 04:05:25;;;;;;;11.05;4.60;;;12.90;51.90;;;;;;5083714;28;20098;-74
2020/12/02 04:07:51;;;;;;;10.15;4.95;;;12.90;51.10;;;;;;5076401;28;20426;-75
2020/12/02 04:10:18;;;;;;;11.90;4.60;;;12.90;51.00;;;;;;5072824;28;20107;-75
2020/12/02 04:12:45;;;;;;;9.00;5.03;;;12.80;52.10;;;;;;5075024;28;20162;-75
2020/12/02 04:15:14;;;;;;;13.55;4.85;;;12.70;51.00;;;;;;5074662;28;20338;-76
2020/12/02 04:17:41;;;;;;;8.43;4.65;;;12.80;51.50;;;;;;5074899;28;20182;-73
2020/12/02 04:20:07;;;;;;;10.43;5.32;;;12.80;51.20;;;;;;5074613;28;20442;-75
2020/12/02 04:22:34;;;;;;;12.23;4.85;;;12.70;51.20;;;;;;5072969;28;20521;-74
2020/12/02 04:25:02;;;;;;;7.07;4.72;;;12.60;51.60;;;;;;5082415;28;20102;-75
2020/12/02 04:27:29;;;;;;;6.90;4.47;;;12.70;52.00;;;;;;5070152;28;20039;-74
2020/12/02 04:29:55;;;;;;;8.20;4.93;;;12.70;51.90;;;;;;5070587;28;20457;-74
2020/12/02 04:32:22;;;;;;;11.10;5.05;;;12.70;52.00;;;;;;5069502;28;20161;-73
2020/12/02 04:34:48;;;;;;;7.47;4.55;;;12.70;51.70;;;;;;5074652;28;20086;-73
2020/12/02 04:37:15;;;;;;;9.70;4.38;;;12.60;52.10;;;;;;5081633;28;20075;-72
2020/12/02 04:39:42;;;;;;;10.98;4.90;;;12.50;52.10;;;;;;5069288;28;20103;-74
2020/12/02 04:42:09;;;;;;;10.82;4.97;;;12.50;53.20;;;;;;5064061;28;20111;-73
2020/12/02 04:44:36;;;;;;;8.05;5.13;;;12.40;52.80;;;;;;5070581;28;20651;-73
2020/12/02 04:47:11;;;;;;;8.07;4.43;;;12.40;53.10;;;;;;5061743;28;20474;-74
2020/12/02 04:49:38;;;;;;;8.82;4.97;;;12.30;53.40;;;;;;5074769;28;20040;-73
2020/12/02 04:52:15;;;;;;;10.10;4.90;;;12.30;53.20;;;;;;5066967;28;20454;-74
2020/12/02 04:54:42;;;;;;;8.82;5.07;;;12.30;53.40;;;;;;5072915;28;20032;-74
2020/12/02 04:57:11;;;;;;;9.63;4.30;;;12.20;53.20;;;;;;5071787;28;20081;-75
2020/12/02 04:59:40;;;;;;;8.00;5.45;;;12.20;53.90;;;;;;5077332;28;20024;-73
2020/12/02 05:02:07;;;;;;;10.23;4.15;;;12.30;53.50;;;;;;5074525;28;20115;-73
2020/12/02 05:04:34;;;;;;;8.85;5.50;;;12.20;53.70;;;;;;5065813;28;20048;-74
2020/12/02 05:07:16;;;;;;;14.88;5.78;;;12.20;53.90;;;;;;5072105;28;20085;-73
2020/12/02 05:10:12;;;;;;;9.20;4.80;;;12.10;54.20;;;;;;5077845;28;20082;-74
2020/12/02 05:12:42;;;;;;;5.22;3.60;;;12.10;53.80;;;;;;5073817;28;20042;-74
2020/12/02 05:15:27;;;;;;;7.38;4.13;;;12.00;53.80;;;;;;5068735;28;20438;-74
2020/12/02 05:18:06;;;;;;;11.25;4.13;;;11.90;53.80;;;;;;5068486;28;20369;-73
2020/12/02 05:20:32;;;;;;;6.53;4.38;;;12.00;54.30;;;;;;5070131;28;20457;-74
2020/12/02 05:23:11;;;;;;;4.88;4.00;;;12.10;54.20;;;;;;5075604;28;20036;-74
2020/12/02 05:25:37;;;;;;;4.85;3.63;;;12.10;54.40;;;;;;5069493;28;20412;-76
2020/12/02 05:28:27;;;;;;;8.27;4.40;;;12.10;54.40;;;;;;5075606;28;20074;-76
2020/12/02 05:31:13;;;;;;;5.65;4.68;;;12.10;54.40;;;;;;5073461;28;20039;-74
2020/12/02 05:33:40;;;;;;;10.05;4.20;;;12.10;54.30;;;;;;5070318;28;20103;-75
2020/12/02 05:36:19;;;;;;;10.32;4.75;;;12.10;54.50;;;;;;5081226;28;20023;-74
2020/12/02 05:39:17;;;;;;;13.80;4.13;;;12.00;54.20;;;;;;5073557;28;20017;-74
2020/12/02 05:41:47;;;;;;;6.53;3.75;;;11.90;54.40;;;;;;5085010;28;20438;-74
2020/12/02 05:44:39;;;;;;;5.05;3.97;;;12.00;54.80;;;;;;5089205;28;20024;-75
2020/12/02 05:47:19;;;;;;;9.23;4.40;;;11.90;54.50;;;;;;5073438;28;20024;-73
2020/12/02 05:49:52;;;;;;;9.05;3.70;;;11.90;54.70;;;;;;5070256;28;20446;-74
2020/12/02 05:52:27;;;;;;;5.80;4.68;;;12.00;54.50;;;;;;5069382;28;20052;-73
2020/12/02 05:55:01;;;;;;;11.07;4.43;;;11.90;54.30;;;;;;5072456;28;20021;-74
2020/12/02 05:57:27;;;;;;;6.97;4.65;;;11.80;54.30;;;;;;5068097;28;20070;-74
2020/12/02 05:59:58;;;;;;;4.22;3.83;;;11.80;54.80;;;;;;5072362;28;20086;-73
2020/12/02 06:02:25;;;;;;;8.02;4.28;;;11.70;54.60;;;;;;5070043;28;20074;-74
2020/12/02 06:04:54;;;;;;;11.65;5.03;;;11.70;54.60;;;;;;5070885;28;20052;-73
2020/12/02 06:07:22;;;;;;;7.32;4.95;;;11.70;55.10;;;;;;5081309;28;20028;-74
2020/12/02 06:09:51;;;;;;;8.35;5.00;;;11.80;55.10;;;;;;5070600;28;20063;-74
2020/12/02 06:12:38;;;;;;;5.95;4.15;;;11.70;54.80;;;;;;5072389;28;20370;-74
2020/12/02 06:15:21;;;;;;;8.57;4.60;;;11.60;54.90;;;;;;5073811;28;20032;-74
2020/12/02 06:17:48;;;;;;;8.73;5.03;;;11.70;55.50;;;;;;5068349;28;20051;-74
2020/12/02 06:20:15;;;;;;;6.82;3.95;;;11.70;55.00;;;;;;5072346;28;20020;-74
2020/12/02 06:22:52;;;;;;;10.75;3.92;;;11.60;55.10;;;;;;5072998;28;20047;-75
2020/12/02 06:25:56;;;;;;;8.23;4.18;;;11.60;56.20;;;;;;5072221;28;20028;-74
2020/12/02 06:28:22;;;;;;;5.68;4.13;;;11.60;55.70;;;;;;5073335;28;20583;-73
2020/12/02 06:31:19;;;;;;;10.07;4.20;;;11.50;55.20;;;;;;5069234;28;20024;-74
2020/12/02 06:33:48;;;;;;;5.65;3.33;;;11.50;55.50;;;;;;5067820;28;20024;-74
2020/12/02 06:36:28;;;;;;;7.35;3.63;;;11.50;55.80;;;;;;5073151;28;20066;-74
2020/12/02 06:39:09;;;;;;;16.33;4.57;;;11.50;55.60;;;;;;5075557;28;20028;-75
2020/12/02 06:41:38;;;;;;;6.72;3.97;;;11.60;56.00;;;;;;5077868;28;20369;-74
2020/12/02 06:44:31;;;;;;;7.75;4.25;;;11.50;55.70;;;;;;5067347;28;20507;-74
2020/12/02 06:47:10;;;;;;;9.88;4.05;;;11.60;55.60;;;;;;5073674;28;20056;-74
2020/12/02 06:49:38;;;;;;;6.88;4.10;;;11.50;55.60;;;;;;5076080;28;20028;-74
2020/12/02 06:52:11;;;;;;;5.85;3.70;;;11.50;56.60;;;;;;5075924;28;20029;-74
2020/12/02 06:54:40;;;;;;;8.50;4.80;;;11.40;55.80;;;;;;5077125;28;20037;-74
2020/12/02 06:57:20;;;;;;;5.65;3.45;;;11.30;55.90;;;;;;5073479;28;20186;-74
2020/12/02 06:59:59;;;;;;;12.05;4.13;;;11.30;56.20;;;;;;5076699;28;20441;-74
2020/12/02 07:02:39;;;;;;;6.20;4.30;;;11.40;56.40;;;;;;5076382;28;20028;-74
2020/12/02 07:05:24;;;;;;;9.60;4.07;;;11.30;56.30;;;;;;5075171;28;20020;-74
2020/12/02 07:08:21;;;;;;;10.60;5.03;;;11.30;55.90;;;;;;5076890;28;20024;-75
2020/12/02 07:11:12;;;;;;;10.95;4.07;;;11.30;56.10;;;;;;5076448;28;20413;-73
2020/12/02 07:13:41;;;;;;;7.85;4.07;;;11.30;56.20;;;;;;5075388;28;20425;-73
2020/12/02 07:16:32;;;;;;;6.53;3.80;;;11.30;56.20;;;;;;5074973;28;20332;-73
2020/12/02 07:19:11;;;;;;;7.50;4.35;;;11.30;56.20;;;;;;5076672;28;20016;-73
2020/12/02 07:21:50;;;;;;;9.98;4.57;;;11.30;56.40;;;;;;5075092;28;20447;-72
2020/12/02 07:24:24;;;;;;;7.25;3.70;;;11.30;56.40;;;;;;5066582;28;20059;-73
2020/12/02 07:26:51;;;;;;;10.65;4.57;;;11.20;56.10;;;;;;5069980;28;20029;-73
2020/12/02 07:29:21;;;;;;;5.95;4.20;;;11.10;56.40;;;;;;5066565;28;20395;-74
2020/12/02 07:31:59;;;;;;;13.82;5.05;;;11.10;56.50;;;;;;5073155;28;20036;-73
2020/12/02 07:34:26;;;;;;;9.77;4.20;;;11.00;56.80;;;;;;5074050;28;20035;-73
2020/12/02 07:37:05;;;;;;;8.07;3.88;;;11.10;57.30;;;;;;5073229;28;20095;-73
2020/12/02 07:39:32;;;;;;;6.07;4.35;;;11.10;56.80;;;;;;5073672;28;20143;-74
2020/12/02 07:42:09;;;;;;;7.95;4.13;;;11.10;57.00;;;;;;5074871;28;20343;-73
2020/12/02 07:44:43;;;;;;;9.40;4.90;;;11.10;57.30;;;;;;5071555;28;20350;-73
2020/12/02 07:47:13;;;;;;;7.10;4.00;;;11.10;57.90;;;;;;5063538;28;20021;-73
2020/12/02 07:49:54;;;;;;;11.40;4.28;;;11.00;57.00;;;;;;5064666;28;20080;-73
2020/12/02 07:52:28;;;;;;;12.18;4.70;;;11.10;57.30;;;;;;5071900;28;20040;-73
2020/12/02 07:54:56;;;;;;;8.85;4.05;;;11.00;57.10;;;;;;5069969;28;20021;-72
2020/12/02 07:57:25;;;;;;;4.82;4.22;;;11.00;57.20;;;;;;5072693;28;20691;-73
2020/12/02 08:00:20;;;;;;;11.57;5.85;;;11.00;57.40;;;;;;5072788;28;20047;-74
2020/12/02 08:02:48;;;;;;;10.20;5.25;;;11.00;58.20;;;;;;5071723;28;20032;-73
2020/12/02 08:05:42;;;;;;;5.43;4.38;;;10.90;57.70;;;;;;5071867;28;20020;-72
2020/12/02 08:08:08;;;;;;;5.50;3.92;;;10.90;58.10;;;;;;5072416;28;20460;-73
2020/12/02 08:10:36;;;;;;;11.00;4.30;;;10.80;57.60;;;;;;5081825;28;20544;-73
2020/12/02 08:13:23;;;;;;;7.55;3.97;;;10.80;58.20;;;;;;5078454;28;20024;-72
2020/12/02 08:15:56;;;;;;;9.80;5.10;;;10.70;57.80;;;;;;5072273;28;20020;-73
2020/12/02 08:18:26;;;;;;;6.47;4.30;;;10.70;57.90;;;;;;5071489;28;20457;-72
2020/12/02 08:20:53;;;;;;;7.47;3.67;;;10.80;58.10;;;;;;5071542;28;20032;-74
2020/12/02 08:23:30;;;;;;;10.40;4.05;;;10.90;58.20;;;;;;5078945;28;20442;-74
2020/12/02 08:26:00;;;;;;;8.88;4.60;;;10.90;57.80;;;;;;5076230;28;20450;-75
2020/12/02 08:28:32;;;;;;;6.35;4.15;;;10.90;57.90;;;;;;5074761;28;20187;-73
2020/12/02 08:31:14;;;;;;;8.43;3.90;;;10.90;58.10;;;;;;5087062;28;20332;-72
2020/12/02 08:33:41;;;;;;;8.07;3.87;;;10.70;57.20;;;;;;5074241;28;20157;-74
2020/12/02 08:36:09;;;;;;;16.95;6.45;;;10.80;58.00;;;;;;5074799;28;20034;-74
2020/12/02 08:38:40;;;;;;;8.35;4.10;;;10.80;58.10;;;;;;5073094;28;20358;-73
2020/12/02 08:41:17;;;;;;;5.47;4.20;;;10.80;58.00;;;;;;5073921;28;20078;-73
2020/12/02 08:43:48;;;;;;;8.20;5.10;;;10.80;58.30;;;;;;5074036;28;20399;-73
2020/12/02 08:46:19;;;;;;;7.80;4.32;;;10.80;58.30;;;;;;5072149;28;20016;-73
2020/12/02 08:48:50;;;;;;;8.20;4.47;;;10.80;58.70;;;;;;5074669;28;20032;-73
2020/12/02 08:51:21;;;;;;;5.13;3.88;;;10.70;58.40;;;;;;5073388;28;20074;-74
2020/12/02 08:53:48;;;;;;;8.20;4.75;;;10.70;58.20;;;;;;5073336;28;20020;-72
2020/12/02 08:56:34;;;;;;;10.90;4.25;;;10.70;58.70;;;;;;5076036;28;20025;-75
2020/12/02 08:59:03;;;;;;;5.22;3.67;;;10.70;58.80;;;;;;5064452;28;20028;-75
2020/12/02 09:01:29;;;;;;;5.40;4.20;;;10.80;58.50;;;;;;5072519;28;20020;-74
2020/12/02 09:03:56;;;;;;;6.85;4.35;;;10.70;58.40;;;;;;5072956;28;20354;-73
2020/12/02 09:06:23;;;;;;;10.52;4.57;;;10.70;57.90;;;;;;5071331;28;20457;-72
2020/12/02 09:08:51;;;;;;;12.57;4.72;;;10.70;58.40;;;;;;5071279;28;20107;-73
2020/12/02 09:11:22;;;;;;;5.65;3.75;;;10.60;58.50;;;;;;5057175;28;20020;-75
2020/12/02 09:13:49;;;;;;;10.93;4.95;;;10.60;58.40;;;;;;5064969;28;20068;-73
2020/12/02 09:16:37;;;;;;;7.03;4.22;;;10.60;58.40;;;;;;5073398;28;20455;-73
2020/12/02 09:19:06;;;;;;;7.78;3.65;;;10.50;58.70;;;;;;5076157;28;20545;-73
2020/12/02 09:21:33;;;;;;;9.63;4.22;;;10.50;58.70;;;;;;5072924;28;20033;-72
2020/12/02 09:24:00;;;;;;;7.57;4.20;;;10.40;58.80;;;;;;5073018;28;20020;-73
2020/12/02 09:26:33;;;;;;;7.80;3.83;;;10.50;58.90;;;;;;5071529;28;20036;-72
2020/12/02 09:29:01;;;;;;;6.93;4.70;;;10.40;58.90;;;;;;5071444;28;20029;-74
2020/12/02 09:31:29;;;;;;;7.55;4.20;;;10.40;58.90;;;;;;5071584;28;20168;-74
2020/12/02 09:33:56;;;;;;;7.05;4.38;;;10.50;59.20;;;;;;5072715;28;20039;-74
2020/12/02 09:36:24;;;;;;;5.07;3.65;;;10.40;58.80;;;;;;5072606;28;20414;-75
2020/12/02 09:38:53;;;;;;;6.90;4.63;;;10.40;59.30;;;;;;5071713;28;20029;-73
2020/12/02 09:41:54;;;;;;;5.25;4.00;;;10.40;59.20;;;;;;5073284;28;20166;-72
2020/12/02 09:44:41;;;;;;;5.07;4.28;;;10.40;59.20;;;;;;5070514;28;20051;-75
2020/12/02 09:47:16;;;;;;;8.25;3.38;;;10.30;59.30;;;;;;5070783;28;20017;-75
2020/12/02 09:49:45;;;;;;;7.18;4.93;;;10.30;59.30;;;;;;5072236;28;20111;-74
2020/12/02 09:52:12;;;;;;;9.88;4.45;;;10.20;59.10;;;;;;5071751;28;20039;-75
2020/12/02 09:54:45;;;;;;;8.85;4.38;;;10.10;59.50;;;;;;5072704;28;20028;-74
2020/12/02 09:57:23;;;;;;;;;;;10.20;59.30;;;;;;5071652;28;20020;-73
2020/12/02 09:59:54;;;;;;;6.68;4.43;;;10.20;59.40;;;;;;5072070;28;19961;-73
2020/12/02 10:02:36;;;;;;;9.57;4.68;;;10.20;59.30;;;;;;5069752;28;20032;-73
2020/12/02 10:05:36;;;;;;;5.10;4.35;;;10.10;59.20;;;;;;5071922;28;20020;-73
2020/12/02 10:08:25;;;;;;;5.80;4.22;;;9.90;59.10;;;;;;5070983;28;20021;-75
2020/12/02 10:11:29;;;;;;;5.80;4.20;;;9.90;59.70;;;;;;5077004;28;20461;-73
2020/12/02 10:14:31;;;;;;;6.78;4.25;;;9.80;59.80;;;;;;5074678;28;20028;-73
2020/12/02 10:17:23;;;;;;;6.13;4.30;;;9.80;59.90;;;;;;5051034;28;20042;-75
2020/12/02 10:19:57;;;;;;;5.60;3.90;;;9.80;60.10;;;;;;5075934;28;20269;-75
2020/12/02 10:22:48;;;;;;;11.85;4.90;;;9.70;60.20;;;;;;5075582;28;20044;-74
2020/12/02 10:25:28;;;;;;;10.18;6.03;;;9.70;60.40;;;;;;5074818;28;20060;-74
2020/12/02 10:28:25;;;;;;;9.02;4.30;;;9.80;60.50;;;;;;5069850;28;20025;-73
2020/12/02 10:31:12;;;;;;;8.60;4.82;;;9.80;60.40;;;;;;5076683;28;20033;-73
2020/12/02 10:34:02;;;;;;;5.32;3.78;;;9.80;60.50;;;;;;5067519;28;20071;-75
2020/12/02 10:36:36;;;;;;;6.80;4.53;;;9.70;60.30;;;;;;5068376;28;20029;-74
2020/12/02 10:39:08;;;;;;;13.23;5.60;;;9.60;60.40;;;;;;5073849;28;20032;-75
2020/12/02 10:41:56;;;;;;;13.85;5.53;;;9.70;60.80;;;;;;5071954;28;20017;-74
2020/12/02 10:44:43;;;;;;;7.75;5.30;;;9.70;61.10;;;;;;5074975;28;20029;-74
2020/12/02 10:47:15;;;;;;;7.97;3.83;;;9.70;60.80;;;;;;5075635;28;20030;-74
2020/12/02 10:49:44;;;;;;;12.50;3.80;;;9.70;60.90;;;;;;5070716;28;20024;-75
2020/12/02 10:52:16;;;;;;;10.70;4.13;;;9.70;61.00;;;;;;5075092;28;20506;-74
2020/12/02 10:54:48;;;;;;;7.30;4.22;;;9.80;61.00;;;;;;5076840;28;20354;-74
2020/12/02 10:57:24;;;;;;;7.00;4.03;;;9.80;61.00;;;;;;5074852;28;20031;-73
2020/12/02 10:59:58;;;;;;;11.90;4.18;;;9.70;61.10;;;;;;5066531;28;20179;-75
2020/12/02 11:02:28;;;;;;;10.15;4.88;;;9.70;60.90;;;;;;5065830;28;20075;-73
2020/12/02 11:04:56;;;;;;;7.60;4.10;;;9.70;61.10;;;;;;5073385;28;20569;-74
2020/12/02 11:07:52;;;;;;;6.97;4.60;;;9.70;61.40;;;;;;5074473;28;20060;-73
2020/12/02 11:10:27;;;;;;;8.18;4.78;;;9.80;61.30;;;;;;5075960;28;20039;-73
2020/12/02 11:13:18;;;;;;;9.23;4.00;;;9.70;61.30;;;;;;5074899;28;20028;-73
2020/12/02 11:15:45;;;;;;;9.75;5.22;;;9.70;61.50;;;;;;5075890;28;20024;-74
2020/12/02 11:18:36;;;;;;;9.43;5.47;;;9.70;61.50;;;;;;5074627;28;20489;-73
2020/12/02 11:21:06;;;;;;;7.20;4.55;;;9.70;61.60;;;;;;5072803;28;20021;-73
2020/12/02 11:23:58;;;;;;;9.45;5.05;;;9.70;61.30;;;;;;5073652;28;20024;-73
2020/12/02 11:26:32;;;;;;;9.77;4.10;;;9.70;61.90;;;;;;5074033;28;20362;-73
2020/12/02 11:29:00;;;;;;;6.75;3.88;;;9.70;61.90;;;;;;5075683;28;20024;-74
2020/12/02 11:31:58;;;;;;;6.63;5.00;;;9.70;61.60;;;;;;5074205;28;20519;-73
2020/12/02 11:34:36;;;;;;;9.50;4.53;;;9.80;61.70;;;;;;5074683;28;20068;-74
2020/12/02 11:37:22;;;;;;;11.10;5.15;;;9.70;61.50;;;;;;5073533;28;20029;-74
2020/12/02 11:40:07;;;;;;;8.77;3.97;;;9.70;62.00;;;;;;5075756;28;20029;-73
2020/12/02 11:43:04;;;;;;;10.38;5.03;;;9.80;61.80;;;;;;5070012;28;20021;-74
2020/12/02 11:45:37;;;;;;;7.63;4.55;;;9.70;61.90;;;;;;5073851;28;20021;-73
2020/12/02 11:48:10;;;;;;;8.13;5.28;;;9.80;61.90;;;;;;5067985;28;20021;-73
2020/12/02 11:51:06;;;;;;;9.95;4.82;;;9.70;61.80;;;;;;5071830;28;20032;-73
2020/12/02 11:53:39;;;;;;;13.32;4.80;;;9.80;61.80;;;;;;5071640;28;20033;-73
2020/12/02 11:56:09;;;;;;;6.50;5.25;;;9.70;61.70;;;;;;5073929;28;20032;-73
2020/12/02 11:58:35;;;;;;;11.07;4.90;;;9.60;61.90;;;;;;5068726;28;20020;-73
2020/12/02 12:01:21;;;;;;;7.28;4.72;;;9.50;62.40;;;;;;5074468;28;20485;-73
2020/12/02 12:04:21;;;;;;;8.57;5.03;;;9.50;62.80;;;;;;5058380;28;20024;-74
2020/12/02 12:06:52;;;;;;;13.25;5.03;;;9.50;62.70;;;;;;5070754;28;20036;-74
2020/12/02 12:09:32;;;;;;;10.65;5.55;;;9.60;62.60;;;;;;5055997;28;20056;-73
2020/12/02 12:12:05;;;;;;;10.15;4.43;;;9.50;62.00;;;;;;5072441;28;20178;-73
2020/12/02 12:14:38;;;;;;;9.57;4.85;;;9.30;62.30;;;;;;5074235;28;20043;-73
2020/12/02 12:17:19;;;;;;;6.18;4.13;;;9.20;62.90;;;;;;5074520;28;20025;-73
2020/12/02 12:19:51;;;;;;;8.52;5.28;;;9.30;63.00;;;;;;5091167;28;20020;-74
2020/12/02 12:22:39;;;;;;;11.32;4.22;;;9.30;62.80;;;;;;5073610;28;20469;-74
2020/12/02 12:25:33;;;;;;;10.40;6.35;;;9.50;62.90;;;;;;5074478;28;20035;-74
2020/12/02 12:28:26;;;;;;;11.63;6.40;;;9.50;62.90;;;;;;5063453;28;20039;-74
2020/12/02 12:30:58;;;;;;;9.82;5.20;;;9.40;63.10;;;;;;5073131;28;20089;-74
2020/12/02 12:33:36;;;;;;;8.20;4.75;;;9.40;63.40;;;;;;5072902;28;20138;-73
2020/12/02 12:36:20;;;;;;;10.30;4.13;;;9.40;63.30;;;;;;5075904;28;20064;-74
2020/12/02 12:39:15;;;;;;;8.85;4.88;;;9.40;63.00;;;;;;5074340;28;20027;-74
2020/12/02 12:41:49;;;;;;;10.27;5.95;;;9.50;63.10;;;;;;5075262;28;20078;-76
2020/12/02 12:44:36;;;;;;;16.60;5.38;;;9.50;62.90;;;;;;5073973;28;20465;-75
2020/12/02 12:47:37;;;;;;;8.50;5.00;;;9.40;63.40;;;;;;5072981;28;20033;-73
2020/12/02 12:50:07;;;;;;;9.60;6.07;;;9.30;64.00;;;;;;5073055;28;20056;-73
2020/12/02 12:52:35;;;;;;;13.20;4.78;;;9.40;64.00;;;;;;5067838;28;20033;-73
2020/12/02 12:55:03;;;;;;;12.85;5.45;;;9.40;63.70;;;;;;5071588;28;20038;-73
2020/12/02 12:57:30;;;;;;;5.05;4.40;;;9.40;63.70;;;;;;5073730;28;20442;-73
2020/12/02 13:00:05;;;;;;;7.63;5.60;;;9.40;63.60;;;;;;5070682;28;20448;-73
2020/12/02 13:02:35;;;;;;;12.07;4.70;;;9.30;63.70;;;;;;5071458;28;20047;-74
2020/12/02 13:05:03;;;;;;;7.25;4.43;;;9.40;63.70;;;;;;5073710;28;20033;-73
2020/12/02 13:07:37;;;;;;;13.25;5.85;;;9.30;63.80;;;;;;5071437;28;20722;-74
2020/12/02 13:10:17;;;;;;;7.30;4.95;;;9.20;64.30;;;;;;5072627;28;20476;-74
2020/12/02 13:13:02;;;;;;;9.85;4.90;;;9.20;64.60;;;;;;5072385;28;20039;-74
2020/12/02 13:16:11;;;;;;;12.98;5.10;;;9.30;64.80;;;;;;5071840;28;20040;-74
2020/12/02 13:18:49;;;;;;;8.50;5.18;;;9.30;64.60;;;;;;5068274;28;20112;-74
2020/12/02 13:22:00;;;;;;;9.48;5.53;;;9.30;64.70;;;;;;5073095;28;20028;-74
2020/12/02 13:24:52;;;;;;;9.73;4.88;;;9.10;63.90;;;;;;5007473;28;20026;-73